Time;durP1;ratioP1;P1;durP2;ratioP2;P2;SDS_P1;SDS_P2;PMS_P1;PMS_P2;Temp;Humidity;BMP_temperature;BMP_pressure;BME280_temperature;BME280_humidity;BME280_pressure;Samples;Min_cycle;Max_cycle;Signal;HPM_P1;HPM_P2
2021/10/15 00:00:13;;;;;;;17.75;8.98;;;6.90;99.90;;;;;;5049896;28;20515;-53
2021/10/15 00:02:38;;;;;;;19.67;9.30;;;6.90;99.90;;;;;;5052036;28;20504;-52
2021/10/15 00:05:06;;;;;;;15.05;8.50;;;6.80;99.90;;;;;;5051464;28;20631;-52
2021/10/15 00:07:31;;;;;;;18.02;8.85;;;6.70;99.90;;;;;;5051741;28;20896;-52
2021/10/15 00:09:57;;;;;;;16.13;9.30;;;6.60;99.90;;;;;;5051219;28;20381;-52
2021/10/15 00:12:23;;;;;;;15.80;8.70;;;6.50;99.90;;;;;;5052222;28;20546;-52
2021/10/15 00:14:48;;;;;;;14.40;9.32;;;6.50;99.90;;;;;;5051142;28;20382;-52
2021/10/15 00:17:14;;;;;;;17.53;9.40;;;6.40;99.90;;;;;;5052109;28;20369;-52
2021/10/15 00:19:40;;;;;;;17.80;9.43;;;6.40;99.90;;;;;;5052035;28;20425;-52
2021/10/15 00:22:05;;;;;;;17.92;10.55;;;6.40;99.90;;;;;;5050840;28;20433;-52
2021/10/15 00:24:31;;;;;;;19.30;10.40;;;6.40;99.90;;;;;;5033778;28;20861;-52
2021/10/15 00:26:57;;;;;;;22.23;10.90;;;6.40;99.90;;;;;;5050991;28;20373;-52
2021/10/15 00:29:22;;;;;;;17.63;10.27;;;6.30;99.90;;;;;;5051621;28;20373;-52
2021/10/15 00:31:48;;;;;;;20.67;10.65;;;6.40;99.90;;;;;;5051026;28;20400;-52
2021/10/15 00:34:13;;;;;;;21.10;10.50;;;6.30;99.90;;;;;;5051758;28;20393;-52
2021/10/15 00:36:39;;;;;;;18.05;10.77;;;6.40;99.90;;;;;;5051666;28;20416;-52
2021/10/15 00:39:05;;;;;;;17.03;10.33;;;6.40;99.90;;;;;;5050860;28;20385;-53
2021/10/15 00:41:31;;;;;;;19.20;11.00;;;6.50;99.90;;;;;;5051929;28;20419;-53
2021/10/15 00:44:06;;;;;;;16.77;10.27;;;6.30;99.90;;;;;;5051157;28;20378;-52
2021/10/15 00:46:33;;;;;;;17.13;10.32;;;6.20;99.90;;;;;;5051390;28;20417;-52
2021/10/15 00:49:00;;;;;;;24.73;11.68;;;6.30;99.90;;;;;;5050968;28;20373;-52
2021/10/15 00:51:25;;;;;;;21.70;12.15;;;6.40;99.90;;;;;;5051210;28;20468;-53
2021/10/15 00:53:52;;;;;;;21.38;12.57;;;6.40;99.90;;;;;;5065642;28;20477;-54
2021/10/15 00:56:18;;;;;;;21.58;12.85;;;6.40;99.90;;;;;;5043621;28;20417;-52
2021/10/15 00:58:44;;;;;;;21.63;12.38;;;6.40;99.90;;;;;;5030734;28;20394;-55
2021/10/15 01:01:10;;;;;;;18.00;11.53;;;6.50;99.90;;;;;;5030921;28;20858;-52
2021/10/15 01:03:36;;;;;;;19.67;11.50;;;6.50;99.90;;;;;;5031546;28;20481;-52
2021/10/15 01:06:02;;;;;;;20.40;11.30;;;6.40;99.90;;;;;;5030581;28;20415;-52
2021/10/15 01:08:28;;;;;;;22.20;12.00;;;6.50;99.90;;;;;;5031142;28;20403;-52
2021/10/15 01:10:54;;;;;;;19.53;12.03;;;6.50;99.90;;;;;;5029751;28;20453;-52
2021/10/15 01:13:20;;;;;;;18.38;11.90;;;6.50;99.90;;;;;;5031021;28;20467;-52
2021/10/15 01:15:46;;;;;;;18.98;11.88;;;6.50;99.90;;;;;;5030452;28;20851;-56
2021/10/15 01:18:15;;;;;;;20.53;12.17;;;6.50;99.90;;;;;;5031124;28;20802;-52
2021/10/15 01:20:42;;;;;;;21.40;12.50;;;6.50;99.90;;;;;;5031094;28;20495;-52
2021/10/15 01:23:08;;;;;;;20.83;13.17;;;6.50;99.90;;;;;;5030100;28;20410;-52
2021/10/15 01:25:35;;;;;;;23.17;12.45;;;6.60;99.90;;;;;;5030954;28;20383;-53
2021/10/15 01:28:01;;;;;;;23.67;11.82;;;6.50;99.90;;;;;;5029864;28;20386;-52
2021/10/15 01:30:27;;;;;;;20.73;11.73;;;6.60;99.90;;;;;;5030816;28;20471;-52
2021/10/15 01:32:53;;;;;;;21.55;12.65;;;6.50;99.90;;;;;;5030136;28;20549;-52
2021/10/15 01:35:18;;;;;;;20.87;12.33;;;6.40;99.90;;;;;;5030731;28;20391;-52
2021/10/15 01:37:44;;;;;;;20.27;11.23;;;6.40;99.90;;;;;;5030358;28;20413;-56
2021/10/15 01:40:11;;;;;;;20.03;11.70;;;6.40;99.90;;;;;;5030401;28;20485;-52
2021/10/15 01:42:55;;;;;;;20.15;11.60;;;6.50;99.90;;;;;;5030539;28;20415;-52
2021/10/15 01:45:22;;;;;;;21.13;11.95;;;6.50;99.90;;;;;;5030567;28;20399;-52
2021/10/15 01:47:47;;;;;;;19.85;11.38;;;6.50;99.90;;;;;;5029751;28;20413;-54
2021/10/15 01:50:13;;;;;;;19.60;11.80;;;6.50;99.90;;;;;;5030257;28;20746;-52
2021/10/15 01:52:39;;;;;;;18.45;11.73;;;6.50;99.90;;;;;;5030358;28;20422;-52
2021/10/15 01:55:08;;;;;;;19.02;11.80;;;6.60;99.90;;;;;;5029658;28;20376;-52
2021/10/15 01:57:34;;;;;;;20.25;11.70;;;6.50;99.90;;;;;;5030338;28;20386;-52
2021/10/15 01:59:59;;;;;;;21.58;11.38;;;6.60;99.90;;;;;;5029535;28;20379;-52
2021/10/15 02:02:25;;;;;;;18.63;11.80;;;6.40;99.90;;;;;;5062154;28;20414;-52
2021/10/15 02:04:52;;;;;;;18.35;11.23;;;6.40;99.90;;;;;;5029661;28;20379;-52
2021/10/15 02:07:18;;;;;;;21.67;11.32;;;6.40;99.90;;;;;;5029852;28;20872;-52
2021/10/15 02:09:44;;;;;;;19.65;11.18;;;6.40;99.90;;;;;;5030122;28;20394;-56
2021/10/15 02:12:10;;;;;;;21.33;11.25;;;6.40;99.90;;;;;;5029577;28;20383;-52
2021/10/15 02:14:36;;;;;;;19.33;11.20;;;6.30;99.90;;;;;;5030148;28;20700;-52
2021/10/15 02:17:01;;;;;;;16.67;10.60;;;6.40;99.90;;;;;;5044182;28;20452;-52
2021/10/15 02:19:27;;;;;;;24.55;11.20;;;6.50;99.90;;;;;;5030324;28;20411;-52
2021/10/15 02:21:53;;;;;;;19.53;11.33;;;6.50;99.90;;;;;;5029303;28;20512;-52
2021/10/15 02:24:18;;;;;;;18.35;11.38;;;6.50;99.90;;;;;;5029696;28;20387;-52
2021/10/15 02:26:44;;;;;;;19.63;11.10;;;6.60;99.90;;;;;;5029946;28;20847;-54
2021/10/15 02:29:10;;;;;;;19.35;10.98;;;6.60;99.90;;;;;;5029275;28;20390;-52
2021/10/15 02:31:35;;;;;;;18.97;11.37;;;6.60;99.90;;;;;;5030179;28;20398;-52
2021/10/15 02:34:01;;;;;;;17.93;11.07;;;6.50;99.90;;;;;;5029111;28;20372;-52
2021/10/15 02:36:27;;;;;;;21.80;12.20;;;6.40;99.90;;;;;;5029094;28;20399;-52
2021/10/15 02:38:53;;;;;;;19.27;12.40;;;6.50;99.90;;;;;;5028969;28;20822;-53
2021/10/15 02:41:18;;;;;;;19.92;12.30;;;6.50;99.90;;;;;;5029634;28;20901;-51
2021/10/15 02:43:44;;;;;;;22.38;12.45;;;6.40;99.90;;;;;;5029908;28;20445;-51
2021/10/15 02:46:11;;;;;;;20.47;12.60;;;6.40;99.90;;;;;;5040132;28;20405;-52
2021/10/15 02:48:37;;;;;;;20.87;12.00;;;6.40;99.90;;;;;;5032123;28;20533;-52
2021/10/15 02:51:03;;;;;;;21.08;12.23;;;6.40;99.90;;;;;;5040935;28;20802;-51
2021/10/15 02:53:28;;;;;;;21.67;12.33;;;6.30;99.90;;;;;;5029587;28;20389;-52
2021/10/15 02:55:54;;;;;;;20.15;11.15;;;6.30;99.90;;;;;;5028801;28;20376;-52
2021/10/15 02:58:19;;;;;;;21.43;12.53;;;6.20;99.90;;;;;;5029736;28;20422;-51
2021/10/15 03:00:45;;;;;;;20.42;11.63;;;6.20;99.90;;;;;;5061155;28;20402;-55
2021/10/15 03:03:11;;;;;;;18.63;11.50;;;6.10;99.90;;;;;;5028496;28;20902;-52
2021/10/15 03:05:36;;;;;;;19.00;11.75;;;7.30;99.90;;;;;;5029109;28;20461;-52
2021/10/15 03:08:02;;;;;;;23.00;12.27;;;6.20;99.90;;;;;;5028367;28;20402;-51
2021/10/15 03:10:28;;;;;;;20.13;12.60;;;6.20;99.90;;;;;;5044677;28;20426;-52
2021/10/15 03:12:53;;;;;;;20.55;11.85;;;6.20;99.90;;;;;;5028587;28;20922;-52
2021/10/15 03:15:19;;;;;;;20.37;11.90;;;6.20;99.90;;;;;;5029310;28;20871;-52
2021/10/15 03:17:44;;;;;;;19.58;11.70;;;6.10;99.90;;;;;;5029450;28;20441;-52
2021/10/15 03:20:10;;;;;;;18.60;11.13;;;6.20;99.90;;;;;;5028250;28;20436;-52
2021/10/15 03:22:36;;;;;;;22.85;12.07;;;6.10;99.90;;;;;;5061079;28;20465;-52
2021/10/15 03:25:02;;;;;;;19.38;11.52;;;6.10;99.90;;;;;;5028554;28;20391;-52
2021/10/15 03:27:28;;;;;;;21.20;11.10;;;6.10;99.90;;;;;;5029016;28;20396;-51
2021/10/15 03:29:53;;;;;;;18.83;10.85;;;6.10;99.90;;;;;;5037620;28;20440;-52
2021/10/15 03:32:19;;;;;;;17.90;10.80;;;6.10;99.90;;;;;;5048947;28;20397;-52
2021/10/15 03:34:44;;;;;;;18.85;11.80;;;6.10;99.90;;;;;;5049885;28;20381;-52
2021/10/15 03:37:10;;;;;;;22.90;11.33;;;6.10;99.90;;;;;;5048319;28;20406;-52
2021/10/15 03:39:36;;;;;;;20.77;11.23;;;6.10;99.90;;;;;;5032823;28;20476;-52
2021/10/15 03:42:01;;;;;;;21.73;11.70;;;6.10;99.90;;;;;;5032077;28;20402;-52
2021/10/15 03:44:27;;;;;;;17.93;11.13;;;6.10;99.90;;;;;;5032790;28;20391;-52
2021/10/15 03:46:53;;;;;;;20.20;10.57;;;6.10;99.90;;;;;;5031972;28;20772;-52
2021/10/15 03:49:18;;;;;;;17.50;11.03;;;6.10;99.90;;;;;;5032849;28;20438;-52
2021/10/15 03:51:44;;;;;;;19.55;11.10;;;6.10;99.90;;;;;;5033102;28;20391;-51
2021/10/15 03:54:10;;;;;;;22.70;11.80;;;6.10;99.90;;;;;;5032008;28;20462;-52
2021/10/15 03:56:35;;;;;;;19.00;11.18;;;6.10;99.90;;;;;;5032750;28;20716;-52
2021/10/15 03:59:01;;;;;;;19.77;10.98;;;6.10;99.90;;;;;;5031991;28;20379;-51
2021/10/15 04:01:27;;;;;;;18.33;10.93;;;6.00;99.90;;;;;;5032479;28;20383;-54
2021/10/15 04:03:52;;;;;;;18.50;11.02;;;5.90;99.90;;;;;;5031756;28;20742;-52
2021/10/15 04:06:18;;;;;;;20.73;11.23;;;5.80;99.90;;;;;;5032025;28;20387;-52
2021/10/15 04:08:44;;;;;;;23.38;11.88;;;5.90;99.90;;;;;;5031534;28;20430;-51
2021/10/15 04:11:09;;;;;;;21.50;11.70;;;5.90;99.90;;;;;;5031396;28;20514;-52
2021/10/15 04:13:35;;;;;;;21.25;12.02;;;5.90;99.90;;;;;;5032077;28;20381;-51
2021/10/15 04:16:01;;;;;;;18.73;11.17;;;5.80;99.90;;;;;;5031257;28;20391;-51
2021/10/15 04:18:28;;;;;;;20.53;11.77;;;5.80;99.90;;;;;;5032508;28;20401;-51
2021/10/15 04:20:54;;;;;;;23.20;11.50;;;5.80;99.90;;;;;;5031382;28;20393;-52
2021/10/15 04:23:20;;;;;;;21.35;11.68;;;5.80;99.90;;;;;;5031817;28;20866;-52
2021/10/15 04:25:46;;;;;;;16.73;10.40;;;5.80;99.90;;;;;;5043247;28;20465;-51
2021/10/15 04:28:12;;;;;;;19.53;11.03;;;5.80;99.90;;;;;;5050354;28;20473;-52
2021/10/15 04:30:37;;;;;;;21.20;11.70;;;5.70;99.90;;;;;;5051407;28;20385;-51
2021/10/15 04:33:03;;;;;;;21.23;11.47;;;5.80;99.90;;;;;;5049482;28;20407;-51
2021/10/15 04:35:29;;;;;;;22.02;11.55;;;5.70;99.90;;;;;;5043907;28;20389;-51
2021/10/15 04:37:54;;;;;;;21.60;11.33;;;6.40;99.90;;;;;;5067570;28;20448;-52
2021/10/15 04:40:20;;;;;;;18.60;11.32;;;5.60;99.90;;;;;;5044970;28;20396;-51
2021/10/15 04:42:45;;;;;;;20.13;11.57;;;5.70;99.90;;;;;;5051812;28;20397;-51
2021/10/15 04:45:11;;;;;;;23.05;11.32;;;5.70;99.90;;;;;;5034149;28;20396;-52
2021/10/15 04:47:37;;;;;;;19.20;11.93;;;5.60;99.90;;;;;;5063872;28;20384;-52
2021/10/15 04:50:05;;;;;;;18.87;11.33;;;5.60;99.90;;;;;;5030991;28;20382;-51
2021/10/15 04:52:31;;;;;;;18.88;11.00;;;5.60;99.90;;;;;;5031998;28;20398;-52
2021/10/15 04:54:57;;;;;;;22.20;11.98;;;5.60;99.90;;;;;;5031074;28;20466;-52
2021/10/15 04:57:23;;;;;;;21.67;11.73;;;5.50;99.90;;;;;;5031515;28;20471;-52
2021/10/15 04:59:49;;;;;;;19.77;11.20;;;5.60;99.90;;;;;;5037040;28;20472;-56
2021/10/15 05:02:15;;;;;;;21.50;11.88;;;5.60;99.90;;;;;;5050367;28;20514;-51
2021/10/15 05:04:41;;;;;;;21.20;10.80;;;5.60;99.90;;;;;;5048096;28;20390;-52
2021/10/15 05:07:07;;;;;;;17.58;10.55;;;5.60;99.90;;;;;;5048112;28;20404;-52
2021/10/15 05:09:33;;;;;;;21.75;11.20;;;6.10;99.90;;;;;;5049911;28;20433;-52
2021/10/15 05:12:01;;;;;;;20.20;10.90;;;5.60;99.90;;;;;;5050450;28;20424;-52
2021/10/15 05:14:27;;;;;;;19.10;11.57;;;5.70;99.90;;;;;;5051353;28;20382;-52
2021/10/15 05:16:53;;;;;;;20.73;11.77;;;5.70;99.90;;;;;;5050425;28;20455;-53
2021/10/15 05:19:20;;;;;;;19.85;11.85;;;5.80;99.90;;;;;;5083369;28;20403;-52
2021/10/15 05:21:45;;;;;;;23.17;11.57;;;5.80;99.90;;;;;;5049647;28;20439;-52
2021/10/15 05:24:11;;;;;;;19.67;10.83;;;5.80;99.90;;;;;;5050281;28;21003;-53
2021/10/15 05:26:37;;;;;;;20.27;11.88;;;5.80;99.90;;;;;;5049991;28;20397;-52
2021/10/15 05:29:03;;;;;;;20.40;11.45;;;5.80;99.90;;;;;;5036671;28;20462;-52
2021/10/15 05:31:28;;;;;;;20.67;11.00;;;5.80;99.90;;;;;;5043392;28;20437;-52
2021/10/15 05:33:54;;;;;;;20.05;11.65;;;5.70;99.90;;;;;;5030155;28;20386;-53
2021/10/15 05:36:20;;;;;;;19.17;10.95;;;5.70;99.90;;;;;;5030563;28;20478;-53
2021/10/15 05:38:46;;;;;;;20.60;11.33;;;5.60;99.90;;;;;;5040859;28;20419;-51
2021/10/15 05:41:12;;;;;;;20.57;11.80;;;5.60;99.90;;;;;;5032931;28;20547;-52
2021/10/15 05:43:37;;;;;;;22.17;12.40;;;5.60;99.90;;;;;;5035110;28;20416;-52
2021/10/15 05:46:03;;;;;;;18.90;11.10;;;5.60;99.90;;;;;;5050383;28;20408;-52
2021/10/15 05:48:29;;;;;;;20.58;12.05;;;5.60;99.90;;;;;;5041177;28;21203;-53
2021/10/15 05:50:54;;;;;;;23.40;11.90;;;5.60;99.90;;;;;;5037816;28;20392;-53
2021/10/15 05:53:22;;;;;;;20.55;11.27;;;5.60;99.90;;;;;;5039886;28;20548;-52
2021/10/15 06:01:10;;;;;;;20.35;12.38;;;5.80;99.90;;;;;;5048496;28;20407;-52
2021/10/15 06:03:37;;;;;;;21.58;11.70;;;6.10;99.90;;;;;;5048578;28;20405;-52
2021/10/15 06:17:05;;;;;;;21.58;11.05;;;6.60;99.90;;;;;;5047172;28;20465;-53
2021/10/15 06:19:35;;;;;;;21.30;10.70;;;6.70;99.90;;;;;;5039934;28;20990;-52
2021/10/15 06:22:00;;;;;;;20.75;11.05;;;6.80;99.90;;;;;;5043654;28;20918;-52
2021/10/15 06:24:26;;;;;;;15.30;10.17;;;7.00;99.90;;;;;;5044953;28;20477;-52
2021/10/15 06:26:51;;;;;;;18.20;11.18;;;7.10;99.90;;;;;;5042910;28;20385;-56
2021/10/15 06:29:17;;;;;;;17.77;10.13;;;7.20;99.90;;;;;;5038164;28;20735;-56
2021/10/15 06:31:43;;;;;;;18.35;9.98;;;7.40;99.90;;;;;;5029731;28;20387;-52
2021/10/15 06:34:08;;;;;;;17.77;9.90;;;7.50;99.90;;;;;;5028494;28;20375;-52
2021/10/15 06:36:34;;;;;;;16.50;9.82;;;7.70;99.90;;;;;;5029601;28;20460;-52
2021/10/15 06:39:00;;;;;;;20.20;9.73;;;7.90;99.90;;;;;;5028137;28;20398;-52
2021/10/15 06:41:25;;;;;;;18.48;9.13;;;8.20;99.90;;;;;;5029182;28;20433;-53
2021/10/15 06:43:51;;;;;;;17.73;9.33;;;8.30;99.90;;;;;;5038572;28;20409;-56
2021/10/15 06:46:17;;;;;;;15.95;9.43;;;8.80;99.90;;;;;;5047024;28;20423;-53
2021/10/15 06:48:42;;;;;;;16.60;9.03;;;9.40;99.90;;;;;;5049168;28;20446;-54
2021/10/15 06:51:08;;;;;;;13.77;8.63;;;9.70;99.90;;;;;;5048301;28;20392;-54
2021/10/15 06:53:33;;;;;;;18.50;10.18;;;9.80;99.90;;;;;;5048614;28;20848;-53
2021/10/15 06:55:59;;;;;;;15.43;8.73;;;10.30;99.90;;;;;;5048331;28;20381;-53
2021/10/15 06:58:25;;;;;;;15.63;8.77;;;11.20;99.90;;;;;;5049322;28;20382;-51
2021/10/15 07:00:50;;;;;;;13.63;8.57;;;12.40;99.90;;;;;;5079656;28;20811;-53
2021/10/15 07:03:18;;;;;;;14.30;8.20;;;13.30;99.90;;;;;;5048081;28;20519;-53
2021/10/15 07:05:45;;;;;;;14.23;8.43;;;14.50;99.90;;;;;;5034729;28;20387;-53
2021/10/15 07:08:11;;;;;;;15.02;9.02;;;16.10;99.90;;;;;;5034429;28;20413;-53
2021/10/15 07:10:38;;;;;;;14.90;9.55;;;17.00;99.90;;;;;;5050014;28;20417;-53
2021/10/15 07:13:03;;;;;;;15.38;9.50;;;16.70;99.90;;;;;;5047215;28;20393;-53
2021/10/15 07:15:30;;;;;;;16.13;10.40;;;15.90;99.90;;;;;;5039894;28;20514;-53
2021/10/15 07:17:56;;;;;;;15.15;10.73;;;16.20;99.90;;;;;;5038367;28;20441;-55
2021/10/15 07:20:27;;;;;;;14.83;12.70;;;17.00;99.90;;;;;;5046345;28;20393;-53
2021/10/15 07:22:54;;;;;;;15.35;13.23;;;;;;;;;;5045122;28;20765;-58
2021/10/15 07:25:20;;;;;;;19.08;17.38;;;;;;;;;;5052529;28;20373;-54
2021/10/15 07:27:46;;;;;;;13.90;8.60;;;;;;;;;;5032814;28;20375;-54
2021/10/15 07:30:13;;;;;;;12.87;8.37;;;;;;;;;;5031919;28;20472;-54
2021/10/15 07:32:38;;;;;;;14.52;8.43;;;21.80;90.40;;;;;;5032570;28;20374;-53
2021/10/15 07:35:05;;;;;;;14.37;7.80;;;21.70;84.40;;;;;;5032284;28;20402;-53
2021/10/15 07:37:30;;;;;;;15.38;8.30;;;20.30;86.40;;;;;;5032202;28;20830;-54
2021/10/15 07:39:56;;;;;;;13.23;8.93;;;20.00;88.40;;;;;;5031901;28;20431;-57
2021/10/15 07:42:22;;;;;;;16.80;8.90;;;19.90;90.50;;;;;;5036777;28;20411;-53
2021/10/15 07:44:48;;;;;;;14.70;8.90;;;20.00;90.60;;;;;;5049321;28;20397;-54
2021/10/15 07:47:14;;;;;;;14.10;8.50;;;21.00;86.90;;;;;;5046735;28;20391;-53
2021/10/15 07:49:40;;;;;;;14.63;8.90;;;21.00;85.60;;;;;;5032846;28;20429;-54
2021/10/15 07:52:06;;;;;;;13.60;7.97;;;21.60;85.60;;;;;;5051466;28;20741;-54
2021/10/15 07:54:33;;;;;;;14.38;7.82;;;22.10;81.60;;;;;;5050858;28;20397;-55
2021/10/15 07:56:59;;;;;;;13.85;8.60;;;22.40;78.90;;;;;;5051428;28;20864;-53
2021/10/15 07:59:25;;;;;;;12.43;7.90;;;22.70;77.50;;;;;;5051852;28;20431;-53
2021/10/15 08:01:51;;;;;;;11.63;7.60;;;22.50;78.00;;;;;;5050700;28;20446;-53
2021/10/15 08:04:23;;;;;;;12.23;7.50;;;21.60;79.20;;;;;;5051197;28;21169;-53
2021/10/15 08:06:50;;;;;;;12.50;7.32;;;21.20;79.50;;;;;;5051419;28;20501;-54
2021/10/15 08:09:16;;;;;;;10.15;6.70;;;22.20;78.20;;;;;;5051352;28;20492;-53
2021/10/15 08:11:42;;;;;;;10.98;7.30;;;21.70;77.30;;;;;;5051785;28;20397;-53
2021/10/15 08:14:07;;;;;;;8.98;5.90;;;21.50;77.90;;;;;;5047391;28;20471;-54
2021/10/15 08:16:33;;;;;;;9.55;5.40;;;21.60;75.20;;;;;;5045963;28;20405;-54
2021/10/15 08:18:59;;;;;;;9.07;5.40;;;21.30;77.00;;;;;;5036043;28;20383;-54
2021/10/15 08:21:24;;;;;;;9.73;6.90;;;21.70;75.70;;;;;;5047026;28;20884;-54
2021/10/15 08:23:50;;;;;;;13.53;12.33;;;21.30;74.40;;;;;;5051157;28;20483;-54
2021/10/15 08:26:16;;;;;;;13.15;11.95;;;19.80;78.30;;;;;;5070639;28;20412;-55
2021/10/15 08:28:44;;;;;;;13.97;12.67;;;;;;;;;;5048184;28;20400;-54
2021/10/15 08:31:11;;;;;;;13.48;12.13;;;21.60;77.40;;;;;;5049114;28;20385;-54
2021/10/15 08:33:39;;;;;;;9.18;5.00;;;21.80;77.00;;;;;;5042532;28;20393;-54
2021/10/15 08:36:04;;;;;;;9.45;5.50;;;22.50;76.20;;;;;;5045987;28;20415;-55
2021/10/15 08:38:30;;;;;;;9.20;7.25;;;23.30;71.10;;;;;;5050819;28;20488;-54
2021/10/15 08:40:56;;;;;;;10.23;9.23;;;22.70;70.30;;;;;;5046112;28;20965;-58
2021/10/15 08:43:33;;;;;;;9.80;8.80;;;22.70;70.30;;;;;;5050733;28;20459;-53
2021/10/15 08:45:59;;;;;;;9.32;5.10;;;23.00;70.30;;;;;;5049220;28;20420;-56
2021/10/15 08:48:25;;;;;;;8.27;4.80;;;22.90;70.80;;;;;;5049669;28;20794;-54
2021/10/15 08:50:51;;;;;;;8.80;5.20;;;22.60;69.90;;;;;;5040045;28;20484;-54
2021/10/15 08:53:16;;;;;;;9.38;7.53;;;23.10;70.60;;;;;;5041898;28;20397;-54
2021/10/15 08:55:43;;;;;;;13.48;12.27;;;22.50;70.10;;;;;;5044065;28;20402;-54
2021/10/15 08:58:08;;;;;;;13.13;11.70;;;21.80;72.30;;;;;;5046901;28;20504;-53
2021/10/15 09:00:36;;;;;;;13.30;12.10;;;21.60;74.10;;;;;;5045678;28;20842;-54
2021/10/15 09:03:22;;;;;;;12.90;11.60;;;22.20;73.10;;;;;;5046777;28;20410;-54
2021/10/15 09:05:57;;;;;;;8.52;5.70;;;;;;;;;;5042855;28;20401;-56
2021/10/15 09:08:24;;;;;;;8.15;4.95;;;23.30;70.20;;;;;;5043347;28;20457;-54
2021/10/15 09:10:51;;;;;;;9.50;5.00;;;22.90;69.60;;;;;;5041126;28;20417;-53
2021/10/15 09:13:20;;;;;;;10.20;5.20;;;22.60;72.10;;;;;;5036811;28;21028;-54
2021/10/15 09:15:51;;;;;;;8.57;4.90;;;22.60;72.10;;;;;;5046540;28;20401;-54
2021/10/15 09:18:32;;;;;;;9.32;4.93;;;23.40;68.70;;;;;;5047337;28;20404;-53
2021/10/15 09:20:58;;;;;;;10.23;5.30;;;24.00;68.00;;;;;;5044784;28;20408;-53
2021/10/15 09:23:45;;;;;;;9.95;6.50;;;24.20;66.60;;;;;;5030439;28;20403;-53
2021/10/15 09:26:11;;;;;;;8.93;6.32;;;24.40;65.90;;;;;;5029316;28;20409;-53
2021/10/15 09:28:47;;;;;;;9.65;8.55;;;24.30;67.10;;;;;;5030390;28;20380;-52
2021/10/15 09:31:13;;;;;;;8.98;5.55;;;24.00;65.10;;;;;;5028747;28;20470;-53
2021/10/15 09:33:55;;;;;;;12.98;11.70;;;22.90;68.10;;;;;;5029565;28;20398;-53
2021/10/15 09:36:21;;;;;;;12.98;11.88;;;22.80;68.20;;;;;;5030348;28;20379;-53
2021/10/15 09:38:48;;;;;;;11.68;10.48;;;22.90;67.60;;;;;;5030201;28;20392;-53
2021/10/15 09:41:39;;;;;;;11.70;10.60;;;22.70;69.80;;;;;;5029890;28;20886;-53
2021/10/15 09:44:28;;;;;;;11.90;10.70;;;23.10;68.70;;;;;;5028980;28;20414;-53
2021/10/15 09:47:11;;;;;;;11.40;10.40;;;24.20;64.80;;;;;;5030662;28;20375;-53
2021/10/15 09:50:00;;;;;;;11.90;10.80;;;23.70;65.70;;;;;;5030753;28;20391;-53
2021/10/15 09:52:32;;;;;;;10.63;9.63;;;23.20;65.50;;;;;;5045498;28;20759;-53
2021/10/15 09:55:09;;;;;;;12.30;11.10;;;22.20;67.10;;;;;;5031406;28;20799;-56
2021/10/15 09:57:38;;;;;;;12.25;10.95;;;21.50;71.10;;;;;;5079489;28;20536;-54
2021/10/15 10:00:07;;;;;;;12.60;11.40;;;21.00;72.20;;;;;;5040638;28;20397;-53
2021/10/15 10:02:35;;;;;;;12.13;11.05;;;20.50;74.40;;;;;;5038820;28;20460;-53
2021/10/15 10:05:06;;;;;;;11.50;10.27;;;19.80;75.00;;;;;;5044335;28;20398;-53
2021/10/15 10:07:35;;;;;;;11.00;9.90;;;19.30;78.90;;;;;;5029050;28;20501;-53
2021/10/15 10:10:01;;;;;;;11.48;9.88;;;19.10;82.20;;;;;;5029016;28;20444;-54
2021/10/15 10:12:28;;;;;;;10.87;9.70;;;20.00;82.20;;;;;;5045078;28;20494;-54
2021/10/15 10:14:53;;;;;;;12.40;10.23;;;21.10;77.80;;;;;;5045183;28;20800;-54
2021/10/15 10:17:23;;;;;;;11.13;10.10;;;22.00;73.40;;;;;;5061167;28;20482;-53
2021/10/15 10:19:53;;;;;;;11.63;10.35;;;21.90;74.30;;;;;;5030108;28;20371;-53
2021/10/15 10:22:21;;;;;;;13.13;10.80;;;22.40;72.10;;;;;;5028947;28;20402;-54
2021/10/15 10:24:51;;;;;;;11.10;9.50;;;22.40;72.50;;;;;;5029269;28;20383;-54
2021/10/15 10:27:29;;;;;;;10.68;9.30;;;22.10;71.50;;;;;;5028704;28;20402;-55
2021/10/15 10:29:55;;;;;;;10.70;9.60;;;21.10;72.70;;;;;;5029202;28;20379;-53
2021/10/15 10:32:23;;;;;;;11.20;10.20;;;20.70;74.80;;;;;;5028505;28;20437;-53
2021/10/15 10:34:48;;;;;;;11.55;10.05;;;21.10;75.80;;;;;;5044632;28;20387;-53
2021/10/15 10:37:16;;;;;;;10.73;9.07;;;21.90;74.70;;;;;;5043484;28;21006;-53
2021/10/15 10:39:42;;;;;;;11.18;8.70;;;22.40;72.80;;;;;;5044840;28;20387;-53
2021/10/15 10:42:09;;;;;;;10.32;8.88;;;22.30;71.00;;;;;;5043537;28;20901;-53
2021/10/15 10:44:59;;;;;;;9.30;8.30;;;22.00;70.40;;;;;;5061091;28;20391;-53
2021/10/15 10:47:26;;;;;;;9.50;8.60;;;22.00;70.20;;;;;;5024456;28;20774;-53
2021/10/15 10:50:05;;;;;;;10.07;8.98;;;22.60;70.10;;;;;;5029360;28;20387;-53
2021/10/15 10:52:46;;;;;;;11.40;8.95;;;23.30;68.50;;;;;;5029087;28;20398;-53
2021/10/15 10:55:54;;;;;;;10.57;9.50;;;22.40;68.00;;;;;;5028010;28;20387;-54
2021/10/15 10:58:33;;;;;;;12.23;9.00;;;21.40;72.80;;;;;;5025519;28;20527;-53
2021/10/15 11:01:19;;;;;;;9.25;8.23;;;21.50;72.40;;;;;;5046728;28;20397;-57
2021/10/15 11:03:44;;;;;;;9.30;7.47;;;21.80;72.00;;;;;;5048643;28;20413;-53
2021/10/15 11:06:10;;;;;;;11.25;9.45;;;21.10;72.50;;;;;;5047127;28;20893;-53
2021/10/15 11:08:36;;;;;;;10.67;9.57;;;21.00;73.20;;;;;;5048112;28;20405;-53
2021/10/15 11:11:19;;;;;;;10.80;9.70;;;20.10;75.10;;;;;;5047680;28;20392;-57
2021/10/15 11:13:46;;;;;;;10.32;9.32;;;18.90;79.50;;;;;;5049059;28;20389;-54
2021/10/15 11:16:23;;;;;;;12.27;10.48;;;19.10;80.30;;;;;;5047889;28;20837;-53
2021/10/15 11:18:48;;;;;;;12.00;9.00;;;18.70;82.20;;;;;;5048887;28;20492;-53
2021/10/15 11:21:14;;;;;;;11.97;9.40;;;18.90;81.80;;;;;;5047807;28;20469;-53
2021/10/15 11:23:40;;;;;;;12.20;8.50;;;19.20;81.50;;;;;;5048482;28;20942;-54
2021/10/15 11:26:07;;;;;;;10.77;8.23;;;18.80;82.30;;;;;;5046201;28;20809;-54
2021/10/15 11:28:32;;;;;;;10.40;8.70;;;18.80;84.30;;;;;;5048425;28;20381;-53
2021/10/15 11:31:00;;;;;;;10.52;8.93;;;18.50;84.50;;;;;;5048287;28;20963;-57
2021/10/15 11:33:26;;;;;;;10.20;8.85;;;18.70;85.10;;;;;;5047559;28;20397;-53
2021/10/15 11:35:54;;;;;;;10.80;9.25;;;18.70;85.90;;;;;;5048398;28;20422;-53
2021/10/15 11:38:27;;;;;;;10.68;9.40;;;19.00;86.50;;;;;;5047775;28;20626;-53
2021/10/15 11:41:03;;;;;;;11.43;9.33;;;18.90;86.90;;;;;;5048813;28;20388;-53
2021/10/15 11:43:31;;;;;;;11.68;9.43;;;19.00;87.00;;;;;;5047950;28;20409;-54
2021/10/15 11:46:01;;;;;;;10.00;8.90;;;19.30;84.80;;;;;;5048000;28;20851;-53
2021/10/15 11:48:29;;;;;;;10.73;8.73;;;19.20;83.10;;;;;;5048243;28;20386;-54
2021/10/15 11:50:58;;;;;;;13.65;9.90;;;19.30;82.90;;;;;;5048269;28;20389;-53
2021/10/15 11:53:37;;;;;;;10.88;8.98;;;19.30;83.00;;;;;;5047227;28;20397;-54
2021/10/15 11:56:05;;;;;;;10.23;9.13;;;18.90;83.90;;;;;;5048761;28;20382;-54
2021/10/15 11:58:37;;;;;;;10.60;9.38;;;19.20;83.90;;;;;;5051966;28;20394;-53
2021/10/15 12:01:09;;;;;;;10.10;9.00;;;19.20;85.20;;;;;;5051370;28;20457;-57
2021/10/15 12:03:41;;;;;;;10.52;8.20;;;19.20;84.00;;;;;;5051873;28;20409;-53
2021/10/15 12:06:29;;;;;;;9.60;8.60;;;19.40;85.00;;;;;;5083303;28;20857;-54
2021/10/15 12:09:07;;;;;;;8.65;7.68;;;19.70;80.60;;;;;;5051341;28;20410;-53
2021/10/15 12:11:37;;;;;;;10.40;7.90;;;18.90;81.40;;;;;;5051645;28;20471;-54
2021/10/15 12:14:06;;;;;;;9.00;8.10;;;18.60;82.80;;;;;;5051145;28;20467;-57
2021/10/15 12:16:54;;;;;;;9.20;8.20;;;18.70;84.10;;;;;;5052174;28;20409;-53
2021/10/15 12:19:28;;;;;;;9.20;7.93;;;18.80;82.60;;;;;;5051159;28;20426;-53
2021/10/15 12:21:57;;;;;;;11.10;8.68;;;18.70;82.60;;;;;;5051556;28;20394;-53
2021/10/15 12:24:29;;;;;;;9.77;7.88;;;18.80;83.30;;;;;;5050119;28;21039;-54
2021/10/15 12:27:09;;;;;;;9.90;8.10;;;18.80;82.70;;;;;;5051338;28;20519;-54
2021/10/15 12:29:46;;;;;;;8.70;7.68;;;18.50;83.40;;;;;;5051411;28;20384;-54
2021/10/15 12:32:18;;;;;;;9.07;7.60;;;18.60;83.60;;;;;;5050955;28;20413;-54
2021/10/15 12:35:04;;;;;;;9.00;7.80;;;18.70;82.90;;;;;;5051388;28;20382;-54
2021/10/15 12:37:41;;;;;;;10.30;8.20;;;18.70;82.50;;;;;;5051065;28;20889;-54
2021/10/15 12:40:15;;;;;;;8.60;7.80;;;19.00;81.90;;;;;;5050648;28;20391;-54
2021/10/15 12:42:43;;;;;;;8.90;7.38;;;19.10;81.30;;;;;;5050830;28;20491;-54
2021/10/15 12:45:11;;;;;;;10.02;7.80;;;18.90;81.90;;;;;;5050243;28;20389;-54
2021/10/15 12:47:38;;;;;;;8.55;7.65;;;18.50;83.50;;;;;;5051326;28;20677;-53
2021/10/15 12:50:06;;;;;;;9.32;8.32;;;18.40;84.10;;;;;;5050065;28;20888;-57
2021/10/15 12:52:35;;;;;;;10.30;8.00;;;18.50;84.50;;;;;;5051254;28;20385;-53
2021/10/15 12:55:15;;;;;;;11.15;7.90;;;18.70;83.00;;;;;;5051120;28;20389;-57
2021/10/15 12:57:43;;;;;;;9.37;7.77;;;18.40;83.80;;;;;;5037946;28;20391;-53
2021/10/15 13:00:09;;;;;;;11.70;8.20;;;17.90;86.80;;;;;;5030049;28;20470;-53